createdAt,value
2022-11-02T00:00:35.696Z,99610.17
2022-11-02T00:03:08.651Z,99610.17
2022-11-02T00:05:41.317Z,99575.95
2022-11-02T00:08:13.362Z,99597.27
2022-11-02T00:10:45.599Z,99598.17
2022-11-02T00:13:19.206Z,99593.92
2022-11-02T00:15:51.240Z,99599.95
2022-11-02T00:18:23.567Z,99601.77
2022-11-02T00:20:57.794Z,99599.16
2022-11-02T00:23:30.727Z,99597.36
2022-11-02T00:26:03.836Z,99591.25
2022-11-02T00:28:36.221Z,99596.41
2022-11-02T00:31:08.934Z,99590.27
2022-11-02T00:33:40.955Z,99584.16
2022-11-02T00:36:13.380Z,99585.80
2022-11-02T00:38:45.278Z,99589.19
2022-11-02T00:41:18.752Z,99590.88
2022-11-02T00:43:50.882Z,99587.41
2022-11-02T00:46:22.827Z,99579.61
2022-11-02T00:48:54.950Z,99577.97
2022-11-02T00:51:26.923Z,99578.80
2022-11-02T00:53:58.947Z,99576.16
2022-11-02T00:56:31.808Z,99576.11
2022-11-02T00:59:05.422Z,99576.06
2022-11-02T01:01:37.672Z,99576.02
2022-11-02T01:04:09.803Z,99575.98
2022-11-02T01:06:43.370Z,99580.23
2022-11-02T01:09:16.983Z,99580.23
2022-11-02T01:11:49.052Z,99573.22
2022-11-02T01:14:21.705Z,99574.91
2022-11-02T01:16:53.796Z,99580.11
2022-11-02T01:19:26.978Z,99572.31
2022-11-02T01:22:00.701Z,99579.23
2022-11-02T01:24:32.763Z,99576.56
2022-11-02T01:27:05.078Z,99580.02
2022-11-02T01:29:37.070Z,99578.28
2022-11-02T01:32:09.490Z,99580.92
2022-11-02T01:34:42.427Z,99573.13
2022-11-02T01:37:14.549Z,99571.36
2022-11-02T01:39:46.634Z,99562.73
2022-11-02T01:42:24.621Z,99564.42
2022-11-02T01:44:56.815Z,99560.97
2022-11-02T01:47:34.374Z,99564.42
2022-11-02T01:50:18.173Z,99564.42
2022-11-02T01:52:50.080Z,99562.73
2022-11-02T01:55:25.163Z,99554.89
2022-11-02T01:57:59.974Z,99558.32
2022-11-02T02:00:32.058Z,99552.25
2022-11-02T02:03:13.029Z,99550.52
2022-11-02T02:05:50.898Z,99553.13
2022-11-02T02:08:26.278Z,99555.72
2022-11-02T02:10:59.462Z,99565.28
2022-11-02T02:13:31.433Z,99559.18
2022-11-02T02:16:19.507Z,99561.78
2022-11-02T02:19:00.706Z,99560.92
2022-11-02T02:21:44.540Z,99558.45
2022-11-02T02:24:40.559Z,99565.28
2022-11-02T02:27:33.147Z,99562.64
2022-11-02T02:30:10.530Z,99568.67
2022-11-02T02:32:57.705Z,99564.42
2022-11-02T02:35:38.741Z,99561.04
2022-11-02T02:38:13.525Z,99564.52
2022-11-02T02:40:57.400Z,99557.72
2022-11-02T02:43:32.328Z,99552.59
2022-11-02T02:46:16.133Z,99549.09
2022-11-02T02:48:49.668Z,99554.24
2022-11-02T02:51:25.051Z,99551.56
2022-11-02T02:54:03.731Z,99556.72
2022-11-02T02:56:41.610Z,99554.12
2022-11-02T02:59:19.193Z,99562.73
2022-11-02T03:01:53.951Z,99555.84
2022-11-02T03:04:26.451Z,99561.83
2022-11-02T03:07:01.299Z,99561.78
2022-11-02T03:09:39.886Z,99560.92
2022-11-02T03:12:15.758Z,99563.52
2022-11-02T03:14:59.334Z,99566.94
2022-11-02T03:18:03.765Z,99560.05
2022-11-02T03:20:40.026Z,99569.53
2022-11-02T03:23:21.001Z,99569.48
2022-11-02T03:26:05.731Z,99574.73
2022-11-02T03:28:56.926Z,99569.58
2022-11-02T03:31:40.889Z,99575.64
2022-11-02T03:34:16.573Z,99564.29
2022-11-02T03:36:51.443Z,99569.48
2022-11-02T03:39:28.083Z,99568.72
2022-11-02T03:42:03.275Z,99567.02
2022-11-02T03:44:38.853Z,99567.06
2022-11-02T03:47:15.785Z,99568.02
2022-11-02T03:49:50.723Z,99569.75
2022-11-02T03:52:25.834Z,99562.91
2022-11-02T03:55:03.362Z,99564.81
2022-11-02T03:57:43.075Z,99559.70
2022-11-02T04:00:19.327Z,99558.91
2022-11-02T04:02:58.794Z,99561.60
2022-11-02T04:05:33.708Z,99556.49
2022-11-02T04:08:21.438Z,99558.30
2022-11-02T04:11:12.832Z,99553.11
2022-11-02T04:14:04.582Z,99561.69
2022-11-02T04:16:38.226Z,99558.22
2022-11-02T04:19:30.709Z,99556.41
2022-11-02T04:22:22.413Z,99561.60
2022-11-02T04:25:13.771Z,99553.02
2022-11-02T04:27:51.894Z,99556.49
2022-11-02T04:30:25.885Z,99555.70
2022-11-02T04:33:16.507Z,99556.61
2022-11-02T04:35:50.163Z,99546.22
2022-11-02T04:38:40.250Z,99554.80
2022-11-02T04:41:36.462Z,99548.70
2022-11-02T04:44:09.886Z,99550.38
2022-11-02T04:46:43.491Z,99541.64
2022-11-02T04:49:17.367Z,99542.47
2022-11-02T04:51:50.022Z,99547.62
2022-11-02T04:54:23.698Z,99541.52
2022-11-02T04:56:57.300Z,99543.20
2022-11-02T04:59:30.080Z,99536.92
2022-11-02T05:02:02.725Z,99539.39
2022-11-02T05:04:36.194Z,99538.44
2022-11-02T05:07:09.280Z,99532.38
2022-11-02T05:09:45.405Z,99538.34
2022-11-02T05:12:17.838Z,99544.28
2022-11-02T05:14:50.502Z,99545.05
2022-11-02T05:17:23.129Z,99552.77
2022-11-02T05:19:56.404Z,99552.73
2022-11-02T05:22:28.498Z,99546.63
2022-11-02T05:25:01.061Z,99541.38
2022-11-02T05:27:34.411Z,99538.78
2022-11-02T05:30:08.561Z,99541.28
2022-11-02T05:32:40.659Z,99544.70
2022-11-02T05:35:13.104Z,99553.23
2022-11-02T05:37:45.509Z,99553.97
2022-11-02T05:40:17.884Z,99554.73
2022-11-02T05:42:50.404Z,99558.03
2022-11-02T05:45:24.430Z,99557.80
2022-11-02T05:47:56.747Z,99555.34
2022-11-02T05:50:29.616Z,99552.78
2022-11-02T05:53:02.981Z,99555.34
2022-11-02T05:55:35.772Z,99553.84
2022-11-02T05:58:07.873Z,99548.95
2022-11-02T06:00:40.699Z,99546.98
2022-11-02T06:03:13.229Z,99545.79
2022-11-02T06:05:45.892Z,99547.10
2022-11-02T06:08:17.995Z,99553.75
2022-11-02T06:10:50.108Z,99544.84
2022-11-02T06:13:22.073Z,99541.23
2022-11-02T06:15:54.315Z,99543.05
2022-11-02T06:18:26.548Z,99543.91
2022-11-02T06:20:59.955Z,99545.55
2022-11-02T06:23:32.378Z,99548.98
2022-11-02T06:26:04.957Z,99543.78
2022-11-02T06:28:36.861Z,99541.23
2022-11-02T06:31:09.381Z,99546.44
2022-11-02T06:33:42.164Z,99544.69
2022-11-02T06:36:14.705Z,99548.98
2022-11-02T06:38:46.643Z,99545.55
2022-11-02T06:41:18.513Z,99550.70
2022-11-02T06:43:50.836Z,99539.14
2022-11-02T06:46:22.845Z,99537.06
2022-11-02T06:48:55.458Z,99539.27
2022-11-02T06:51:28.119Z,99551.11
2022-11-02T06:54:05.960Z,99548.31
2022-11-02T06:56:34.704Z,99540.50
2022-11-02T06:59:06.744Z,99538.70
2022-11-02T07:01:39.036Z,99542.22
2022-11-02T07:04:12.169Z,99540.45
2022-11-02T07:06:44.102Z,99542.08
2022-11-02T07:09:16.163Z,99549.95
2022-11-02T07:11:48.156Z,99540.50
2022-11-02T07:14:20.165Z,99544.74
2022-11-02T07:16:52.625Z,99546.32
2022-11-02T07:19:24.651Z,99549.72
2022-11-02T07:21:56.839Z,99552.94
2022-11-02T07:24:29.303Z,99553.65
2022-11-02T07:27:01.262Z,99561.41
2022-11-02T07:29:33.222Z,99564.94
2022-11-02T07:32:07.146Z,99564.88
2022-11-02T07:34:39.301Z,99567.48
2022-11-02T07:37:11.445Z,99570.04
2022-11-02T07:39:43.609Z,99566.63
2022-11-02T07:42:15.980Z,99567.59
2022-11-02T07:44:48.577Z,99562.38
2022-11-02T07:47:20.858Z,99566.57
2022-11-02T07:49:52.804Z,99568.09
2022-11-02T07:52:25.063Z,99574.03
2022-11-02T07:54:57.180Z,99572.28
2022-11-02T07:57:29.318Z,99579.30
2022-11-02T08:00:01.632Z,99567.29
2022-11-02T08:02:35.485Z,99571.73
2022-11-02T08:05:07.877Z,99571.84
2022-11-02T08:07:39.925Z,99574.39
2022-11-02T08:10:11.859Z,99578.68
2022-11-02T08:12:44.522Z,99580.56
2022-11-02T08:15:17.423Z,99569.48
2022-11-02T08:17:51.266Z,99570.25
2022-11-02T08:20:23.612Z,99576.19
2022-11-02T08:22:55.682Z,99571.48
2022-11-02T08:25:28.238Z,99565.19
2022-11-02T08:28:01.760Z,99563.24
2022-11-02T08:30:34.160Z,99564.77
2022-11-02T08:33:13.344Z,99567.15
2022-11-02T08:35:47.684Z,99560.81
2022-11-02T08:38:21.469Z,99557.17
2022-11-02T08:40:53.514Z,99564.77
2022-11-02T08:43:25.793Z,99561.95
2022-11-02T08:46:17.022Z,99561.78
2022-11-02T08:48:34.899Z,99560.87
2022-11-02T08:51:08.487Z,99566.83
2022-11-02T08:53:40.722Z,99570.20
2022-11-02T08:56:13.728Z,99575.31
2022-11-02T08:58:45.971Z,99574.27
2022-11-02T09:01:18.054Z,99575.84
2022-11-02T09:03:50.407Z,99566.87
2022-11-02T09:06:22.899Z,99570.06
2022-11-02T09:08:57.948Z,99567.89
2022-11-02T09:11:30.087Z,99567.59
2022-11-02T09:14:03.079Z,99570.08
2022-11-02T09:16:41.072Z,99565.69
2022-11-02T09:19:09.955Z,99563.14
2022-11-02T09:21:42.451Z,99564.19
2022-11-02T09:24:15.651Z,99561.73
2022-11-02T09:26:49.813Z,99563.66
2022-11-02T09:29:21.753Z,99560.22
2022-11-02T09:31:54.486Z,99562.03
2022-11-02T09:34:26.625Z,99560.52
2022-11-02T09:36:59.377Z,99555.45
2022-11-02T09:39:31.936Z,99557.26
2022-11-02T09:42:07.172Z,99552.31
2022-11-02T09:44:56.852Z,99552.43
2022-11-02T09:50:05.077Z,99555.09
2022-11-02T09:52:40.266Z,99549.02
2022-11-02T09:55:16.018Z,99548.13
2022-11-02T09:57:51.183Z,99542.27
2022-11-02T10:00:23.261Z,99547.77
2022-11-02T10:03:19.294Z,99551.62
2022-11-02T10:05:59.952Z,99561.36
2022-11-02T10:08:49.732Z,99558.20
2022-11-02T10:11:28.184Z,99548.81
2022-11-02T10:14:03.499Z,99554.02
2022-11-02T10:16:41.359Z,99552.22
2022-11-02T10:19:16.712Z,99554.77
2022-11-02T10:21:52.428Z,99551.36
2022-11-02T10:24:45.028Z,99551.56
2022-11-02T10:27:23.707Z,99558.63
2022-11-02T10:30:10.892Z,99568.34
2022-11-02T10:32:45.342Z,99561.55
2022-11-02T10:35:57.720Z,99561.66
2022-11-02T10:38:23.630Z,99566.05
2022-11-02T10:41:07.772Z,99561.72
2022-11-02T10:43:52.144Z,99565.08
2022-11-02T10:46:31.399Z,99568.45
2022-11-02T10:49:24.663Z,99565.13
2022-11-02T10:51:57.112Z,99563.44
2022-11-02T10:54:33.432Z,99562.58
2022-11-02T10:57:04.639Z,99573.67
2022-11-02T10:59:36.590Z,99565.75
2022-11-02T11:02:17.052Z,99573.30
2022-11-02T11:04:49.245Z,99569.20
2022-11-02T11:07:27.066Z,99572.64
2022-11-02T11:09:59.509Z,99571.81
2022-11-02T11:12:36.141Z,99569.15
2022-11-02T11:20:29.566Z,99569.68
2022-11-02T11:23:19.554Z,99566.21
2022-11-02T11:26:06.399Z,99564.41
2022-11-02T11:28:59.080Z,99574.58
2022-11-02T11:31:33.113Z,99574.58
2022-11-02T11:34:05.450Z,99565.99
2022-11-02T11:36:37.855Z,99567.84
2022-11-02T11:39:30.796Z,99577.50
2022-11-02T11:42:05.918Z,99579.41
2022-11-02T11:44:37.994Z,99583.84
2022-11-02T11:47:10.143Z,99569.39
2022-11-02T11:50:08.093Z,99563.56
2022-11-02T11:52:25.606Z,99568.78
2022-11-02T11:54:58.291Z,99573.16
2022-11-02T11:57:33.555Z,99578.37
2022-11-02T12:00:08.778Z,99574.92
2022-11-02T12:02:44.661Z,99563.67
2022-11-02T12:05:15.639Z,99571.41
2022-11-02T12:08:09.998Z,99579.34
2022-11-02T12:10:46.024Z,99564.64
2022-11-02T12:13:23.855Z,99572.70
2022-11-02T12:15:59.913Z,99571.95
2022-11-02T12:18:40.662Z,99573.06
2022-11-02T12:21:31.936Z,99580.20
2022-11-02T12:24:06.933Z,99578.66
2022-11-02T12:27:07.148Z,99578.77
2022-11-02T12:29:58.824Z,99584.03
2022-11-02T12:32:51.090Z,99591.06
2022-11-02T12:35:37.812Z,99578.30
2022-11-02T12:38:35.438Z,99582.05
2022-11-02T12:41:15.954Z,99583.16
2022-11-02T12:43:53.862Z,99592.88
2022-11-02T12:46:38.028Z,99589.59
2022-11-02T12:49:36.479Z,99594.16
2022-11-02T12:52:14.197Z,99592.61
2022-11-02T12:54:49.208Z,99598.01
2022-11-02T12:57:26.899Z,99608.54
2022-11-02T13:00:04.470Z,99601.88
2022-11-02T13:02:59.223Z,99598.89
2022-11-02T13:05:43.139Z,99605.32
2022-11-02T13:08:24.313Z,99606.53
2022-11-02T13:10:59.382Z,99597.51
2022-11-02T13:13:36.987Z,99605.55
2022-11-02T13:16:11.984Z,99607.38
2022-11-02T13:18:50.002Z,99625.64
2022-11-02T13:21:25.046Z,99620.45
2022-11-02T13:24:00.488Z,99618.95
2022-11-02T13:26:38.756Z,99622.34
2022-11-02T13:29:25.173Z,99624.36
2022-11-02T13:32:16.379Z,99632.42
2022-11-02T13:34:51.343Z,99633.56
2022-11-02T13:37:37.536Z,99631.12
2022-11-02T13:40:18.477Z,99635.60
2022-11-02T13:43:08.423Z,99636.63
2022-11-02T13:45:50.261Z,99635.05
2022-11-02T13:48:46.486Z,99642.04
2022-11-02T13:51:30.790Z,99633.35
2022-11-02T13:54:05.868Z,99633.39
2022-11-02T13:56:39.296Z,99628.20
2022-11-02T13:59:17.247Z,99626.63
2022-11-02T14:01:51.656Z,99625.83
2022-11-02T14:04:24.205Z,99630.16
2022-11-02T14:07:02.138Z,99636.36
2022-11-02T14:09:45.878Z,99636.50
2022-11-02T14:12:27.319Z,99631.46
2022-11-02T14:15:17.441Z,99627.28
2022-11-02T14:17:59.505Z,99629.19
2022-11-02T14:20:37.210Z,99627.57
2022-11-02T14:23:15.087Z,99636.39
2022-11-02T14:25:59.944Z,99626.19
2022-11-02T14:28:45.080Z,99636.70
2022-11-02T14:31:25.807Z,99634.18
2022-11-02T14:34:15.615Z,99631.62
2022-11-02T14:37:08.235Z,99646.31
2022-11-02T14:39:51.947Z,99642.92
2022-11-02T14:42:52.661Z,99642.92
2022-11-02T14:45:36.504Z,99645.55
2022-11-02T14:48:10.723Z,99645.59
2022-11-02T14:50:42.205Z,99645.59
2022-11-02T14:53:28.625Z,99647.80
2022-11-02T14:56:00.583Z,99643.86
2022-11-02T14:58:35.380Z,99652.56
2022-11-02T15:01:09.819Z,99646.48
2022-11-02T15:03:42.442Z,99649.87
2022-11-02T15:06:19.805Z,99645.20
2022-11-02T15:09:00.658Z,99641.30
2022-11-02T15:11:55.287Z,99639.70
2022-11-02T15:14:45.788Z,99639.80
2022-11-02T15:17:22.069Z,99638.24
2022-11-02T15:19:59.157Z,99640.03
2022-11-02T15:22:41.739Z,99638.41
2022-11-02T15:25:28.570Z,99637.64
2022-11-02T15:28:09.324Z,99623.92
2022-11-02T15:30:46.555Z,99632.59
2022-11-02T15:33:27.580Z,99634.45
2022-11-02T15:36:01.129Z,99633.80
2022-11-02T15:38:39.428Z,99641.77
2022-11-02T15:41:26.460Z,99639.48
2022-11-02T15:44:22.292Z,99639.48
2022-11-02T15:47:06.209Z,99651.86
2022-11-02T15:49:44.201Z,99662.33
2022-11-02T15:53:16.610Z,99650.42
2022-11-02T15:55:24.352Z,99656.46
2022-11-02T15:58:07.936Z,99664.14
2022-11-02T16:00:41.006Z,99652.90
2022-11-02T16:03:14.327Z,99659.83
2022-11-02T16:05:50.286Z,99657.27
2022-11-02T16:08:28.000Z,99669.38
2022-11-02T16:11:20.463Z,99666.81
2022-11-02T16:14:08.547Z,99659.91
2022-11-02T16:16:33.248Z,99657.24
2022-11-02T16:19:02.055Z,99664.89
2022-11-02T16:21:34.255Z,99656.17
2022-11-02T16:24:07.528Z,99661.27
2022-11-02T16:26:39.525Z,99663.77
2022-11-02T16:29:12.460Z,99672.40
2022-11-02T16:31:45.577Z,99677.52
2022-11-02T16:34:23.177Z,99669.72
2022-11-02T16:36:56.122Z,99668.86
2022-11-02T16:39:41.778Z,99677.49
2022-11-02T16:42:25.367Z,99686.09
2022-11-02T16:45:00.939Z,99682.70
2022-11-02T16:47:41.947Z,99682.70
2022-11-02T16:50:22.924Z,99681.86
2022-11-02T16:53:02.413Z,99681.06
2022-11-02T16:55:46.550Z,99685.34
2022-11-02T16:58:21.294Z,99686.98
2022-11-02T17:00:59.433Z,99686.98
2022-11-02T17:03:35.020Z,99681.78
2022-11-02T17:06:08.649Z,99680.08
2022-11-02T17:08:41.635Z,99678.35
2022-11-02T17:11:18.796Z,99673.17
2022-11-02T17:13:53.869Z,99686.13
2022-11-02T17:16:26.095Z,99673.23
2022-11-02T17:18:58.009Z,99685.31
2022-11-02T17:21:30.889Z,99688.80
2022-11-02T17:24:06.221Z,99692.22
2022-11-02T17:26:38.534Z,99682.81
2022-11-02T17:29:28.134Z,99687.30
2022-11-02T17:32:01.304Z,99683.94
2022-11-02T17:34:33.470Z,99686.55
2022-11-02T17:37:07.303Z,99688.19
2022-11-02T17:39:39.291Z,99690.92
2022-11-02T17:42:29.268Z,99692.67
2022-11-02T17:45:20.780Z,99690.03
2022-11-02T17:47:53.062Z,99686.55
2022-11-02T17:50:26.598Z,99692.62
2022-11-02T17:53:00.582Z,99691.78
2022-11-02T17:55:34.709Z,99687.44
2022-11-02T17:58:08.536Z,99693.40
2022-11-02T18:00:40.270Z,99692.54
2022-11-02T18:03:19.484Z,99696.59
2022-11-02T18:05:55.828Z,99704.59
2022-11-02T18:08:26.708Z,99704.59
2022-11-02T18:10:58.534Z,99702.84
2022-11-02T18:13:30.569Z,99700.34
2022-11-02T18:16:02.791Z,99699.52
2022-11-02T18:18:34.851Z,99707.29
2022-11-02T18:21:07.083Z,99704.70
2022-11-02T18:23:40.779Z,99697.80
2022-11-02T18:26:14.176Z,99693.52
2022-11-02T18:28:46.309Z,99693.52
2022-11-02T18:31:18.242Z,99694.31
2022-11-02T18:33:51.780Z,99694.31
2022-11-02T18:36:23.740Z,99691.70
2022-11-02T18:38:55.789Z,99698.55
2022-11-02T18:41:31.939Z,99695.96
2022-11-02T18:44:13.503Z,99713.19
2022-11-02T18:46:41.022Z,99714.81
2022-11-02T18:49:13.511Z,99702.84
2022-11-02T18:51:45.965Z,99710.69
2022-11-02T18:54:18.446Z,99712.49
2022-11-02T18:56:50.405Z,99705.64
2022-11-02T18:59:22.273Z,99704.87
2022-11-02T19:01:56.998Z,99702.28
2022-11-02T19:04:29.027Z,99707.43
2022-11-02T19:07:18.724Z,99704.95
2022-11-02T19:09:50.607Z,99712.82
2022-11-02T19:12:25.477Z,99708.59
2022-11-02T19:14:58.023Z,99706.08
2022-11-02T19:17:30.436Z,99702.70
2022-11-02T19:20:02.812Z,99707.88
2022-11-02T19:22:34.901Z,99710.47
2022-11-02T19:25:07.420Z,99712.17
2022-11-02T19:27:39.254Z,99710.42
2022-11-02T19:30:11.918Z,99716.53
2022-11-02T19:32:44.020Z,99732.89
2022-11-02T19:35:15.798Z,99724.38
2022-11-02T19:37:47.894Z,99726.17
2022-11-02T19:40:20.053Z,99715.92
2022-11-02T19:42:52.584Z,99708.20
2022-11-02T19:45:24.416Z,99711.69
2022-11-02T19:47:56.555Z,99711.69
2022-11-02T19:50:28.528Z,99717.70
2022-11-02T19:53:01.633Z,99715.14
2022-11-02T19:55:33.630Z,99709.96
2022-11-02T19:58:06.380Z,99715.11
2022-11-02T20:00:38.574Z,99724.55
2022-11-02T20:03:10.509Z,99726.20
2022-11-02T20:05:42.671Z,99719.27
2022-11-02T20:08:15.896Z,99721.05
2022-11-02T20:10:47.867Z,99727.11
2022-11-02T20:13:19.757Z,99728.81
2022-11-02T20:15:53.121Z,99724.57
2022-11-02T20:18:25.478Z,99721.14
2022-11-02T20:21:05.854Z,99734.97
2022-11-02T20:23:38.000Z,99728.98
2022-11-02T20:26:15.644Z,99729.80
2022-11-02T20:28:48.225Z,99723.84
2022-11-02T20:31:23.194Z,99725.55
2022-11-02T20:33:55.426Z,99736.77
2022-11-02T20:36:27.748Z,99735.91
2022-11-02T20:39:00.008Z,99733.31
2022-11-02T20:41:32.274Z,99753.20
2022-11-02T20:44:04.255Z,99737.72
2022-11-02T20:46:41.190Z,99739.45
2022-11-02T20:49:21.921Z,99736.91
2022-11-02T20:51:45.455Z,99736.05
2022-11-02T20:54:19.073Z,99743.78
2022-11-02T20:56:51.148Z,99742.89
2022-11-02T20:59:23.076Z,99737.72
2022-11-02T21:01:55.160Z,99736.94
2022-11-02T21:04:27.292Z,99730.03
2022-11-02T21:06:59.395Z,99736.98
2022-11-02T21:09:31.354Z,99733.51
2022-11-02T21:12:21.405Z,99733.46
2022-11-02T21:14:53.389Z,99731.69
2022-11-02T21:17:25.315Z,99739.40
2022-11-02T21:20:02.777Z,99738.52
2022-11-02T21:22:31.598Z,99734.20
2022-11-02T21:25:03.857Z,99738.52
2022-11-02T21:27:35.995Z,99735.92
2022-11-02T21:30:08.448Z,99735.91
2022-11-02T21:32:40.392Z,99738.47
2022-11-02T21:35:12.305Z,99738.42
2022-11-02T21:37:44.433Z,99737.48
2022-11-02T21:40:16.767Z,99732.31
2022-11-02T21:42:49.861Z,99741.09
2022-11-02T21:45:26.007Z,99739.50
2022-11-02T21:47:55.777Z,99749.84
2022-11-02T21:50:27.692Z,99746.38
2022-11-02T21:52:59.905Z,99750.66
2022-11-02T21:55:31.990Z,99751.50
2022-11-02T21:58:03.824Z,99748.02
2022-11-02T22:00:53.415Z,99742.85
2022-11-02T22:03:25.392Z,99745.46
2022-11-02T22:05:59.537Z,99757.50
2022-11-02T22:08:40.660Z,99750.61
2022-11-02T22:11:24.715Z,99751.42
2022-11-02T22:13:58.676Z,99743.66
2022-11-02T22:16:36.456Z,99741.08
2022-11-02T22:19:10.798Z,99745.41
2022-11-02T22:21:43.675Z,99744.55
2022-11-02T22:24:15.407Z,99742.51
2022-11-02T22:26:47.287Z,99739.20
2022-11-02T22:29:19.913Z,99740.88
2022-11-02T22:31:51.820Z,99741.72
2022-11-02T22:34:24.869Z,99742.63
2022-11-02T22:36:58.459Z,99742.63
2022-11-02T22:39:30.395Z,99740.86
2022-11-02T22:42:02.454Z,99745.98
2022-11-02T22:44:47.229Z,99739.11
2022-11-02T22:47:19.379Z,99749.48
2022-11-02T22:49:51.405Z,99743.47
2022-11-02T22:52:23.478Z,99746.97
2022-11-02T22:54:55.557Z,99750.44
2022-11-02T22:57:27.479Z,99761.58
2022-11-02T22:59:59.383Z,99753.03
2022-11-02T23:02:32.747Z,99747.91
2022-11-02T23:07:40.861Z,99749.51
2022-11-02T23:10:14.669Z,99756.58
2022-11-02T23:12:46.702Z,99752.29
2022-11-02T23:15:18.590Z,99748.94
2022-11-02T23:17:50.529Z,99752.44
2022-11-02T23:20:22.593Z,99760.28
2022-11-02T23:22:56.175Z,99755.17
2022-11-02T23:25:28.442Z,99751.81
2022-11-02T23:28:18.424Z,99750.14
2022-11-02T23:31:07.902Z,99757.09
2022-11-02T23:33:41.570Z,99756.23
2022-11-02T23:36:15.490Z,99761.39
2022-11-02T23:39:06.804Z,99767.47
2022-11-02T23:41:39.106Z,99759.75
2022-11-02T23:44:18.726Z,99757.19
2022-11-02T23:46:52.192Z,99764.94
2022-11-02T23:49:24.215Z,99764.09
2022-11-02T23:52:13.740Z,99752.11
2022-11-02T23:55:03.559Z,99761.55
2022-11-02T23:57:35.604Z,99757.30
